This is the latest recevied weather packets stored in our database for station/object NI2O. If no packets are shown the sender has not sent any weather packets the latest 10 day(s).
| Time | Temp. | Humidity | Pressure | Rain* | Wind** | Luminosity | Snow |
|---|---|---|---|---|---|---|---|
| 1777614388 | 8.89° C | 81% | 1011.8 hPa | 0 mm | - | 0 W/m² | - |
| 1777610094 | 10° C | 78% | 1011.3 hPa | 0 mm | - | 0 W/m² | - |
| 1777609480 | 10° C | 78% | 1011.3 hPa | 0 mm | - | 0 W/m² | - |
| 1777608253 | 10° C | 78% | 1011.2 hPa | 0 mm | - | 0 W/m² | - |
| 1777607066 | 10° C | 78% | 1011.2 hPa | 0 mm | - | 0 W/m² | - |
| 1777573483 | 15° C | 64% | 1007.1 hPa | 0 mm | - | 564 W/m² | - |
| 1777572869 | 15° C | 67% | 1006.8 hPa | 0 mm | - | 261 W/m² | - |
| 1777571049 | 15° C | 70% | 1007 hPa | 0 mm | - | 361 W/m² | - |
| 1777567962 | 13.89° C | 75% | 1006.9 hPa | 0 mm | - | 138 W/m² | - |
| 1777565508 | 13.89° C | 79% | 1007.3 hPa | 0 mm | - | 554 W/m² | - |
| 1777563668 | 12.78° C | 83% | 1007.6 hPa | 0 mm | - | 259 W/m² | - |
| 1777563055 | 12.22° C | 85% | 1007.7 hPa | 0 mm | - | 121 W/m² | - |
| 1777561214 | 11.67° C | 88% | 1007.9 hPa | 0 mm | - | 73 W/m² | - |
| 1777560621 | 11.67° C | 88% | 1007.9 hPa | 0 mm | - | 80 W/m² | - |
| 1777559987 | 11.67° C | 88% | 1007.8 hPa | 0 mm | - | 161 W/m² | - |
| 1777556307 | 10.56° C | 95% | 1006.8 hPa | 0 mm | - | 157 W/m² | - |
| 1777552628 | 10° C | 97% | 1007.2 hPa | 0 mm | - | 78 W/m² | - |
| 1777552014 | 10° C | 97% | 1007 hPa | 0 mm | - | 55 W/m² | - |
| 1777548334 | 8.89° C | 98% | 1007 hPa | 0 mm | - | 65 W/m² | - |
| 1777544674 | 8.89° C | 98% | 1007 hPa | 0 mm | - | 3 W/m² | - |
| 1777539746 | 9.44° C | 97% | 1006.5 hPa | 0 mm | - | 0 W/m² | - |
| 1777539133 | 9.44° C | 97% | 1006.4 hPa | 0 mm | - | 0 W/m² | - |
| 1777537907 | 9.44° C | 97% | 1006.2 hPa | 0 mm | - | 0 W/m² | - |
| 1777537617 | 8.89° C | 97% | 1006.3 hPa | 0 mm | - | 0 W/m² | - |
| 1777534529 | 8.89° C | 98% | 1006.7 hPa | 0 mm | - | 0 W/m² | - |
* Rain latest hour (hover to see other rain measurements)
** Current wind speed in m/s (hover to see current wind gust speed)